Airport details for: EISG (Ireland)

Metar

EISG 172000Z 22010KT 9999 SCT042 14/13 Q1001

General details

ICAO: EISG
IATA: SXL
Name (city): Sligo
Major:
Country: Ireland
vACC: vACC Ireland
Description:
Scenery links:
FS9 scenery:
FSX/P3D scenery:
XP scenery:
Elevation: 11 ft.
Transition altitude: 5000 ft.
MSA: 3900 ft.
Latitude: 54.280278
Longitude: -8.599167
EISG Charts
EISG Notams
EISG Online stations

Runways

Number Course Length Elevation Lat Lon ILS ILS freq ILS FAC GP
11 107° 3934ft / 1199 m 11ft 54.281133 -8.607817 - - 3.0°
29 287° 3934ft / 1199 m 11ft 54.279292 -8.5906 - - 3.0°